• Join FlightAware (Why Join?)
  • Login
  • US Flag 
08:29AM EST


 

Airport Tracker/Info


-or-


 

Live Flight TrackerFlight Track Log ✈ AWE1940 ✈ 15-Jun-2013 ✈ KCLT - KALB

Flight Track Log - Related Links

Times and Time Zones

All times are in EDT time to prevent confusion due to time zone crossing. See the AWE1940 flight status page for this flight to view local times or setup timezone preferences in your user account.

Time Position Orientation Groundspeed Altitude Reporting Facility
EDT Latitude Longitude Course Direction KTS MPH feet Rate Location/Type
10:20PM 35.1992 -80.9378 30° Northeast 150 173 1,800  Level Atlanta Center
10:21PM 35.1678 -80.9339 174° South 182 209 2,800 2,280 Climbing Atlanta Center
10:22PM 35.1267 -80.8694 128° Southeast 255 293 5,800 2,760 Climbing Atlanta Center
10:23PM 35.1000 -80.6371 90° East  Level FlightAware Approximate
10:23PM 35.1036 -80.7867 109° East 306 352 8,500  Level Atlanta Center
10:24PM 35.1891 -80.5739 29° Northeast  Level FlightAware Approximate
10:24PM 35.1531 -80.6856 59° Northeast 293 337 12,200  Level Atlanta Center
10:25PM 35.2796 -80.5098 30° Northeast  Level FlightAware Approximate
10:25PM 35.2219 -80.6117 41° Northeast 308 354 15,000  Level Atlanta Center
10:26PM 35.2925 -80.5297 43° Northeast 338 389 17,900 2,220 Climbing Atlanta Center
10:27PM 35.3442 -80.4411 54° Northeast 348 400 19,500 1,980 Climbing Atlanta Center
10:28PM 35.3819 -80.3094 71° East 384 442 21,900 1,740 Climbing Atlanta Center
10:29PM 35.4217 -80.1753 70° East 402 463 23,000 540 Climbing Atlanta Center
10:30PM 35.4569 -80.0408 72° East 415 478 23,000  Level Atlanta Center
10:30PM 35.4703 -79.9889 72° East 408 470 23,000  Level Washington Center
10:31PM 35.5017 -79.8681 72° East 408 470 23,000 120 Level Washington Center
10:32PM 35.5378 -79.7347 72° East 408 470 23,300 1,380 Climbing Washington Center
10:33PM 35.5786 -79.5733 73° East 427 491 25,900 2,160 Climbing Washington Center
10:34PM 35.6119 -79.4447 72° East 436 502 27,700 1,980 Climbing Washington Center
10:35PM 35.6644 -79.3094 64° Northeast 436 502 29,900 1,560 Climbing Washington Center
10:36PM 35.7228 -79.1714 62° Northeast 436 502 30,800 1,440 Climbing Washington Center
10:37PM 35.7792 -79.0253 65° Northeast 448 516 32,900 2,160 Climbing Washington Center
10:38PM 35.8331 -78.8894 64° Northeast 448 516 35,200 1,800 Climbing Washington Center
10:39PM 35.8911 -78.7533 62° Northeast 442 509 36,500 900 Climbing Washington Center
10:40PM 35.9528 -78.6275 59° Northeast 432 497 37,000 240 Climbing Washington Center
10:41PM 36.0167 -78.4939 59° Northeast 432 497 37,000  Level Washington Center
10:42PM 36.0800 -78.3675 58° Northeast 432 497 37,000  Level Washington Center
10:43PM 36.1414 -78.2386 59° Northeast 432 497 37,000  Level Washington Center
10:44PM 36.2028 -78.1094 59° Northeast 432 497 37,000  Level Washington Center
10:45PM 36.2658 -77.9800 59° Northeast 432 497 37,000  Level Washington Center
10:46PM 36.3267 -77.8506 60° Northeast 432 497 37,000  Level Washington Center
10:47PM 36.3875 -77.7206 60° Northeast 437 503 37,000  Level Washington Center
10:48PM 36.4461 -77.5906 61° Northeast 437 503 37,000  Level Washington Center
10:49PM 36.5044 -77.4603 61° Northeast 431 496 37,000  Level Washington Center
10:50PM 36.5714 -77.3169 60° Northeast 431 496 37,000  Level Washington Center
10:51PM 36.6336 -77.1839 60° Northeast 436 502 37,000  Level Washington Center
10:52PM 36.6958 -77.0503 60° Northeast 441 507 37,000  Level Washington Center
10:53PM 36.7825 -76.9508 43° Northeast 432 497 37,000  Level Washington Center
10:54PM 36.8817 -76.8617 36° Northeast 427 491 37,000  Level Washington Center
10:55PM 36.9764 -76.7722 37° Northeast 421 484 37,000  Level Washington Center
10:56PM 37.0733 -76.6853 36° Northeast 421 484 37,000  Level Washington Center
10:57PM 37.1700 -76.6006 35° Northeast 421 484 37,000  Level Washington Center
10:58PM 37.2644 -76.5103 37° Northeast 426 490 37,000  Level Washington Center
10:59PM 37.3506 -76.4306 36° Northeast 426 490 37,000  Level Washington Center
11:01PM 37.4661 -76.3272 35° Northeast 426 490 37,000  Level Washington Center
11:02PM 37.5625 -76.2467 34° Northeast 426 490 37,000  Level Washington Center
11:03PM 37.6608 -76.1742 30° Northeast 419 482 37,000  Level Washington Center
11:04PM 37.7717 -76.0961 29° Northeast 409 471 37,000  Level Washington Center
11:05PM 37.8575 -76.0258 33° Northeast 404 465 37,000  Level Washington Center
11:06PM 37.9558 -75.9525 30° Northeast 404 465 37,000  Level Washington Center
11:07PM 38.0561 -75.8792 30° Northeast 409 471 37,000  Level Washington Center
11:08PM 38.1522 -75.8031 32° Northeast 409 471 37,000  Level Washington Center
11:09PM 38.2503 -75.7267 31° Northeast 409 471 37,000  Level Washington Center
11:10PM 38.3544 -75.6578 27° Northeast 409 471 37,000 -60 Level Washington Center
11:11PM 38.4506 -75.5811 32° Northeast 409 471 36,900  Descending Washington Center
11:12PM 38.5442 -75.5067 32° Northeast 404 465 37,000  Climbing Washington Center
11:13PM 38.6275 -75.4111 42° Northeast 404 465 36,900  Descending Washington Center
11:14PM 38.6981 -75.2939 52° Northeast 399 459 37,000 -960 Climbing Washington Center
11:15PM 38.7686 -75.1789 52° Northeast 405 466 35,000 -1,020 Descending Washington Center
11:16PM 38.8664 -75.0983 33° Northeast 405 466 35,000  Level Washington Center
11:17PM 38.9725 -75.0336 25° Northeast 411 473 35,000  Level Washington Center
11:18PM 39.0867 -74.9553 28° Northeast 416 479 35,000  Level Washington Center
11:19PM 39.1906 -74.8819 29° Northeast 416 479 35,000  Level Washington Center
11:20PM 39.2922 -74.8111 28° Northeast 416 479 35,000  Level Washington Center
11:22PM 39.5031 -74.6694 27° Northeast 423 487 35,000  Level New York Center
11:23PM 39.5947 -74.6044 29° Northeast 423 487 35,000  Level New York Center
11:24PM 39.7078 -74.5297 27° Northeast 423 487 35,000  Level New York Center
11:25PM 39.8144 -74.4517 29° Northeast 423 487 35,000  Level New York Center
11:26PM 39.9167 -74.3814 28° Northeast 423 487 35,000  Level New York Center
11:27PM 40.0189 -74.3081 29° Northeast 423 487 35,000  Level New York Center
11:28PM 40.1247 -74.2511 22° Northeast 423 487 35,000 -420 Level New York Center
11:29PM 40.2358 -74.2347 North 401 461 34,200 -1,200 Descending New York Center
11:30PM 40.3467 -74.2186 North 396 456 32,700 -1,620 Descending New York Center
11:31PM 40.4600 -74.1942 North 401 461 31,000 -1,320 Descending New York Center
11:33PM 40.7367 -74.1575 North 424 488 28,300 -1,080 Descending Boston Center
11:34PM 40.8539 -74.1358 North 430 495 27,400 -900 Descending Boston Center
11:35PM 40.9769 -74.1144 North 430 495 26,500 -960 Descending Boston Center
11:36PM 41.1003 -74.0928 North 430 495 25,500 -1,020 Descending Boston Center
11:37PM 41.2214 -74.0739 North 430 495 24,500 -780 Descending Boston Center
11:38PM 41.3364 -74.0492 North 425 489 24,000 -600 Descending Boston Center
11:39PM 41.4597 -74.0300 North 430 495 23,400 -780 Descending Boston Center
11:40PM 41.5767 -74.0081 North 430 495 22,500 -1,260 Descending Boston Center
11:41PM 41.6936 -73.9886 North 430 495 20,900 -1,560 Descending Boston Center
11:42PM 41.8128 -73.9692 North 420 483 19,400 -1,560 Descending Boston Center
11:43PM 41.9214 -73.9497 North 396 456 17,800 -2,280 Descending Boston Center
11:43PM 41.9611 -73.9450 North 393 452 16,400 -3,540 Descending Boston Center
11:44PM 42.0175 -73.9350 North 389 448 14,800 -2,520 Descending Boston Center
11:45PM 42.1200 -73.9153 North 370 426 12,600 -1,680 Descending Boston Center
11:46PM 42.2200 -73.9006 North 364 419 11,400 -1,200 Descending Boston Center
11:47PM 42.3164 -73.8719 12° North 347 399 10,300 -1,200 Descending Boston Center
11:48PM 42.3958 -73.8486 12° North 271 312 9,100 -1,920 Descending Boston Center
11:49PM 42.4733 -73.8250 13° North 251 289 6,500 -2,520 Descending Boston Center
11:50PM 42.5339 -73.8039 14° North 234 269 4,100 -1,980 Descending Boston Center
11:51PM 42.5922 -73.8022 North 202 232 2,600 -1,500 Descending Boston Center